sensor_id;sensor_type;location;lat;lon;timestamp;temperature;humidity
11532;DHT22;5822;51.000;5.874;2023-01-09T00:00:40;11.10;99.90
11532;DHT22;5822;51.000;5.874;2023-01-09T00:03:06;11.10;99.90
11532;DHT22;5822;51.000;5.874;2023-01-09T00:05:31;11.10;99.90
11532;DHT22;5822;51.000;5.874;2023-01-09T00:07:57;11.10;99.90
11532;DHT22;5822;51.000;5.874;2023-01-09T00:10:22;11.10;99.90
11532;DHT22;5822;51.000;5.874;2023-01-09T00:12:48;11.00;99.90
11532;DHT22;5822;51.000;5.874;2023-01-09T00:15:14;11.00;99.90
11532;DHT22;5822;51.000;5.874;2023-01-09T00:17:40;11.10;99.90
11532;DHT22;5822;51.000;5.874;2023-01-09T00:20:07;11.00;99.90
11532;DHT22;5822;51.000;5.874;2023-01-09T00:22:34;11.00;99.90
11532;DHT22;5822;51.000;5.874;2023-01-09T00:25:00;11.10;99.90
11532;DHT22;5822;51.000;5.874;2023-01-09T00:27:28;11.10;99.90
11532;DHT22;5822;51.000;5.874;2023-01-09T00:29:54;10.90;99.90
11532;DHT22;5822;51.000;5.874;2023-01-09T00:32:21;11.00;99.90
11532;DHT22;5822;51.000;5.874;2023-01-09T00:34:47;11.00;99.90
11532;DHT22;5822;51.000;5.874;2023-01-09T00:37:13;10.90;99.90
11532;DHT22;5822;51.000;5.874;2023-01-09T00:39:39;10.80;99.90
11532;DHT22;5822;51.000;5.874;2023-01-09T00:42:06;10.80;99.90
11532;DHT22;5822;51.000;5.874;2023-01-09T00:44:42;10.90;99.90
11532;DHT22;5822;51.000;5.874;2023-01-09T00:47:20;11.00;99.90
11532;DHT22;5822;51.000;5.874;2023-01-09T00:49:47;10.80;99.90
11532;DHT22;5822;51.000;5.874;2023-01-09T00:52:13;10.80;99.90
11532;DHT22;5822;51.000;5.874;2023-01-09T00:54:39;10.80;99.90
11532;DHT22;5822;51.000;5.874;2023-01-09T00:57:07;10.80;99.90
11532;DHT22;5822;51.000;5.874;2023-01-09T00:59:35;10.70;99.90
11532;DHT22;5822;51.000;5.874;2023-01-09T01:02:01;10.70;99.90
11532;DHT22;5822;51.000;5.874;2023-01-09T01:04:26;10.70;99.90
11532;DHT22;5822;51.000;5.874;2023-01-09T01:07:10;10.80;99.90
11532;DHT22;5822;51.000;5.874;2023-01-09T01:09:54;10.70;99.90
11532;DHT22;5822;51.000;5.874;2023-01-09T01:12:20;10.60;99.90
11532;DHT22;5822;51.000;5.874;2023-01-09T01:14:45;10.60;99.90
11532;DHT22;5822;51.000;5.874;2023-01-09T01:17:11;10.70;99.90
11532;DHT22;5822;51.000;5.874;2023-01-09T01:19:37;10.60;99.90
11532;DHT22;5822;51.000;5.874;2023-01-09T01:22:02;10.70;99.90
11532;DHT22;5822;51.000;5.874;2023-01-09T01:24:28;10.70;99.90
11532;DHT22;5822;51.000;5.874;2023-01-09T01:26:54;10.70;99.90
11532;DHT22;5822;51.000;5.874;2023-01-09T01:29:19;10.70;99.90
11532;DHT22;5822;51.000;5.874;2023-01-09T01:31:45;10.80;99.90
11532;DHT22;5822;51.000;5.874;2023-01-09T01:34:11;10.70;99.90
11532;DHT22;5822;51.000;5.874;2023-01-09T01:36:36;10.70;99.90
11532;DHT22;5822;51.000;5.874;2023-01-09T01:39:02;10.70;99.90
11532;DHT22;5822;51.000;5.874;2023-01-09T01:41:28;10.80;99.90
11532;DHT22;5822;51.000;5.874;2023-01-09T01:44:00;10.70;99.90
11532;DHT22;5822;51.000;5.874;2023-01-09T01:46:27;10.70;99.90
11532;DHT22;5822;51.000;5.874;2023-01-09T01:49:06;10.70;99.90
11532;DHT22;5822;51.000;5.874;2023-01-09T01:51:38;10.60;99.90
11532;DHT22;5822;51.000;5.874;2023-01-09T01:54:08;10.60;99.90
11532;DHT22;5822;51.000;5.874;2023-01-09T01:56:43;10.60;99.90
11532;DHT22;5822;51.000;5.874;2023-01-09T01:59:17;10.70;99.90
11532;DHT22;5822;51.000;5.874;2023-01-09T02:01:48;10.60;99.90
11532;DHT22;5822;51.000;5.874;2023-01-09T02:04:15;10.60;99.90
11532;DHT22;5822;51.000;5.874;2023-01-09T02:06:41;10.60;99.90
11532;DHT22;5822;51.000;5.874;2023-01-09T02:09:08;10.60;99.90
11532;DHT22;5822;51.000;5.874;2023-01-09T02:11:46;10.70;99.90
11532;DHT22;5822;51.000;5.874;2023-01-09T02:14:13;10.70;99.90
11532;DHT22;5822;51.000;5.874;2023-01-09T02:31:24;10.60;99.90
11532;DHT22;5822;51.000;5.874;2023-01-09T02:36:51;10.50;99.90
11532;DHT22;5822;51.000;5.874;2023-01-09T02:39:26;10.40;99.90
11532;DHT22;5822;51.000;5.874;2023-01-09T02:42:27;10.30;99.90
11532;DHT22;5822;51.000;5.874;2023-01-09T02:44:54;10.30;99.90
11532;DHT22;5822;51.000;5.874;2023-01-09T02:49:56;10.30;99.90
11532;DHT22;5822;51.000;5.874;2023-01-09T02:52:45;10.30;99.90
11532;DHT22;5822;51.000;5.874;2023-01-09T03:03:39;10.20;99.90
11532;DHT22;5822;51.000;5.874;2023-01-09T03:09:03;10.20;99.90
11532;DHT22;5822;51.000;5.874;2023-01-09T03:11:34;10.20;99.90
11532;DHT22;5822;51.000;5.874;2023-01-09T03:14:06;10.10;99.90
11532;DHT22;5822;51.000;5.874;2023-01-09T03:16:35;10.20;99.90
11532;DHT22;5822;51.000;5.874;2023-01-09T03:19:05;10.20;99.90
11532;DHT22;5822;51.000;5.874;2023-01-09T03:21:32;10.20;99.90
11532;DHT22;5822;51.000;5.874;2023-01-09T03:24:01;10.10;99.90
11532;DHT22;5822;51.000;5.874;2023-01-09T03:26:27;10.10;99.90
11532;DHT22;5822;51.000;5.874;2023-01-09T03:28:54;10.10;99.90
11532;DHT22;5822;51.000;5.874;2023-01-09T03:31:20;10.00;99.90
11532;DHT22;5822;51.000;5.874;2023-01-09T03:33:46;10.10;99.90
11532;DHT22;5822;51.000;5.874;2023-01-09T03:36:14;10.10;99.90
11532;DHT22;5822;51.000;5.874;2023-01-09T03:38:40;10.00;99.90
11532;DHT22;5822;51.000;5.874;2023-01-09T03:41:06;10.10;99.90
11532;DHT22;5822;51.000;5.874;2023-01-09T03:43:31;10.10;99.90
11532;DHT22;5822;51.000;5.874;2023-01-09T03:45:57;10.00;99.90
11532;DHT22;5822;51.000;5.874;2023-01-09T03:48:23;9.90;99.90
11532;DHT22;5822;51.000;5.874;2023-01-09T03:50:53;9.90;99.90
11532;DHT22;5822;51.000;5.874;2023-01-09T03:53:20;9.90;99.90
11532;DHT22;5822;51.000;5.874;2023-01-09T03:55:48;9.90;99.90
11532;DHT22;5822;51.000;5.874;2023-01-09T03:58:14;9.90;99.90
11532;DHT22;5822;51.000;5.874;2023-01-09T04:00:40;9.90;99.90
11532;DHT22;5822;51.000;5.874;2023-01-09T04:03:07;9.90;99.90
11532;DHT22;5822;51.000;5.874;2023-01-09T04:05:33;9.90;99.90
11532;DHT22;5822;51.000;5.874;2023-01-09T04:07:59;9.90;99.90
11532;DHT22;5822;51.000;5.874;2023-01-09T04:10:24;9.90;99.90
11532;DHT22;5822;51.000;5.874;2023-01-09T04:12:50;10.00;99.90
11532;DHT22;5822;51.000;5.874;2023-01-09T04:15:16;10.10;99.90
11532;DHT22;5822;51.000;5.874;2023-01-09T04:17:41;10.10;99.90
11532;DHT22;5822;51.000;5.874;2023-01-09T04:20:08;10.10;99.90
11532;DHT22;5822;51.000;5.874;2023-01-09T04:22:34;10.10;99.90
11532;DHT22;5822;51.000;5.874;2023-01-09T04:25:00;10.20;99.90
11532;DHT22;5822;51.000;5.874;2023-01-09T04:27:25;10.20;99.90
11532;DHT22;5822;51.000;5.874;2023-01-09T04:29:51;10.30;99.90
11532;DHT22;5822;51.000;5.874;2023-01-09T04:32:16;10.20;99.90
11532;DHT22;5822;51.000;5.874;2023-01-09T04:34:42;10.30;99.90
11532;DHT22;5822;51.000;5.874;2023-01-09T04:37:08;10.40;99.90
11532;DHT22;5822;51.000;5.874;2023-01-09T04:39:33;10.30;99.90
11532;DHT22;5822;51.000;5.874;2023-01-09T04:41:59;10.30;99.90
11532;DHT22;5822;51.000;5.874;2023-01-09T04:44:25;10.30;99.90
11532;DHT22;5822;51.000;5.874;2023-01-09T04:46:51;10.30;99.90
11532;DHT22;5822;51.000;5.874;2023-01-09T04:49:17;10.30;99.90
11532;DHT22;5822;51.000;5.874;2023-01-09T04:51:43;10.30;99.90
11532;DHT22;5822;51.000;5.874;2023-01-09T04:54:09;10.30;99.90
11532;DHT22;5822;51.000;5.874;2023-01-09T04:56:35;10.30;99.90
11532;DHT22;5822;51.000;5.874;2023-01-09T04:59:01;10.30;99.90
11532;DHT22;5822;51.000;5.874;2023-01-09T05:01:27;10.30;99.90
11532;DHT22;5822;51.000;5.874;2023-01-09T05:03:53;10.30;99.90
11532;DHT22;5822;51.000;5.874;2023-01-09T05:06:18;10.40;99.90
11532;DHT22;5822;51.000;5.874;2023-01-09T05:08:44;10.30;99.90
11532;DHT22;5822;51.000;5.874;2023-01-09T05:11:10;10.30;99.90
11532;DHT22;5822;51.000;5.874;2023-01-09T05:13:35;10.40;99.90
11532;DHT22;5822;51.000;5.874;2023-01-09T05:16:01;10.40;99.90
11532;DHT22;5822;51.000;5.874;2023-01-09T05:18:27;10.40;99.90
11532;DHT22;5822;51.000;5.874;2023-01-09T05:20:52;10.30;99.90
11532;DHT22;5822;51.000;5.874;2023-01-09T05:23:18;10.20;99.90
11532;DHT22;5822;51.000;5.874;2023-01-09T05:25:44;10.30;99.90
11532;DHT22;5822;51.000;5.874;2023-01-09T05:28:09;10.40;99.90
11532;DHT22;5822;51.000;5.874;2023-01-09T05:30:35;10.40;99.90
11532;DHT22;5822;51.000;5.874;2023-01-09T05:33:01;10.30;99.90
11532;DHT22;5822;51.000;5.874;2023-01-09T05:35:26;10.30;99.90
11532;DHT22;5822;51.000;5.874;2023-01-09T05:37:52;10.40;99.90
11532;DHT22;5822;51.000;5.874;2023-01-09T05:40:18;10.40;99.90
11532;DHT22;5822;51.000;5.874;2023-01-09T05:42:44;10.40;99.90
11532;DHT22;5822;51.000;5.874;2023-01-09T05:45:10;10.40;99.90
11532;DHT22;5822;51.000;5.874;2023-01-09T05:47:36;10.40;99.90
11532;DHT22;5822;51.000;5.874;2023-01-09T05:50:02;10.50;99.90
11532;DHT22;5822;51.000;5.874;2023-01-09T05:52:28;10.50;99.90
11532;DHT22;5822;51.000;5.874;2023-01-09T05:54:53;10.50;99.90
11532;DHT22;5822;51.000;5.874;2023-01-09T05:57:19;10.50;99.90
11532;DHT22;5822;51.000;5.874;2023-01-09T05:59:45;10.40;99.90
11532;DHT22;5822;51.000;5.874;2023-01-09T06:02:10;10.50;99.90
11532;DHT22;5822;51.000;5.874;2023-01-09T06:04:36;10.60;99.90
11532;DHT22;5822;51.000;5.874;2023-01-09T06:07:02;10.60;99.90
11532;DHT22;5822;51.000;5.874;2023-01-09T06:09:27;10.60;99.90
11532;DHT22;5822;51.000;5.874;2023-01-09T06:11:53;10.60;99.90
11532;DHT22;5822;51.000;5.874;2023-01-09T06:14:22;10.50;99.90
11532;DHT22;5822;51.000;5.874;2023-01-09T06:16:48;10.50;99.90
11532;DHT22;5822;51.000;5.874;2023-01-09T06:19:14;10.50;99.90
11532;DHT22;5822;51.000;5.874;2023-01-09T06:21:39;10.50;99.90
11532;DHT22;5822;51.000;5.874;2023-01-09T06:24:05;10.40;99.90
11532;DHT22;5822;51.000;5.874;2023-01-09T06:26:31;10.40;99.90
11532;DHT22;5822;51.000;5.874;2023-01-09T06:28:57;10.50;99.90
11532;DHT22;5822;51.000;5.874;2023-01-09T06:31:25;10.60;99.90
11532;DHT22;5822;51.000;5.874;2023-01-09T06:33:51;10.60;99.90
11532;DHT22;5822;51.000;5.874;2023-01-09T06:36:16;10.60;99.90
11532;DHT22;5822;51.000;5.874;2023-01-09T06:38:42;10.50;99.90
11532;DHT22;5822;51.000;5.874;2023-01-09T06:41:08;10.70;99.90
11532;DHT22;5822;51.000;5.874;2023-01-09T06:43:33;10.60;99.90
11532;DHT22;5822;51.000;5.874;2023-01-09T06:45:59;10.70;99.90
11532;DHT22;5822;51.000;5.874;2023-01-09T06:48:25;10.70;99.90
11532;DHT22;5822;51.000;5.874;2023-01-09T06:50:51;10.70;99.90
11532;DHT22;5822;51.000;5.874;2023-01-09T06:53:17;10.60;99.90
11532;DHT22;5822;51.000;5.874;2023-01-09T06:55:43;10.60;99.90
11532;DHT22;5822;51.000;5.874;2023-01-09T06:58:09;10.60;99.90
11532;DHT22;5822;51.000;5.874;2023-01-09T07:00:35;10.70;99.90
11532;DHT22;5822;51.000;5.874;2023-01-09T07:03:01;10.70;99.90
11532;DHT22;5822;51.000;5.874;2023-01-09T07:05:26;10.60;99.90
11532;DHT22;5822;51.000;5.874;2023-01-09T07:07:52;10.60;99.90
11532;DHT22;5822;51.000;5.874;2023-01-09T07:10:18;10.60;99.90
11532;DHT22;5822;51.000;5.874;2023-01-09T07:12:43;10.60;99.90
11532;DHT22;5822;51.000;5.874;2023-01-09T07:15:09;10.60;99.90
11532;DHT22;5822;51.000;5.874;2023-01-09T07:17:35;10.60;99.90
11532;DHT22;5822;51.000;5.874;2023-01-09T07:20:00;10.50;99.90
11532;DHT22;5822;51.000;5.874;2023-01-09T07:22:26;10.60;99.90
11532;DHT22;5822;51.000;5.874;2023-01-09T07:24:52;10.60;99.90
11532;DHT22;5822;51.000;5.874;2023-01-09T07:27:18;10.70;99.90
11532;DHT22;5822;51.000;5.874;2023-01-09T07:29:43;10.60;99.90
11532;DHT22;5822;51.000;5.874;2023-01-09T07:32:09;10.60;99.90
11532;DHT22;5822;51.000;5.874;2023-01-09T07:34:34;10.60;99.90
11532;DHT22;5822;51.000;5.874;2023-01-09T07:37:00;10.60;99.90
11532;DHT22;5822;51.000;5.874;2023-01-09T07:39:26;10.50;99.90
11532;DHT22;5822;51.000;5.874;2023-01-09T07:41:51;10.60;99.90
11532;DHT22;5822;51.000;5.874;2023-01-09T07:44:17;10.70;99.90
11532;DHT22;5822;51.000;5.874;2023-01-09T07:46:43;10.70;99.90
11532;DHT22;5822;51.000;5.874;2023-01-09T07:49:08;10.60;99.90
11532;DHT22;5822;51.000;5.874;2023-01-09T07:51:34;10.60;99.90
11532;DHT22;5822;51.000;5.874;2023-01-09T07:54:00;10.60;99.90
11532;DHT22;5822;51.000;5.874;2023-01-09T07:56:26;10.70;99.90
11532;DHT22;5822;51.000;5.874;2023-01-09T07:58:51;10.60;99.90
11532;DHT22;5822;51.000;5.874;2023-01-09T08:01:17;10.60;99.90
11532;DHT22;5822;51.000;5.874;2023-01-09T08:03:42;10.60;99.90
11532;DHT22;5822;51.000;5.874;2023-01-09T08:06:08;10.60;99.90
11532;DHT22;5822;51.000;5.874;2023-01-09T08:08:34;10.70;99.90
11532;DHT22;5822;51.000;5.874;2023-01-09T08:11:00;10.70;99.90
11532;DHT22;5822;51.000;5.874;2023-01-09T08:13:26;10.70;99.90
11532;DHT22;5822;51.000;5.874;2023-01-09T08:15:51;10.70;99.90
11532;DHT22;5822;51.000;5.874;2023-01-09T08:18:17;10.60;99.90
11532;DHT22;5822;51.000;5.874;2023-01-09T08:20:42;10.70;99.90
11532;DHT22;5822;51.000;5.874;2023-01-09T08:23:08;10.70;99.90
11532;DHT22;5822;51.000;5.874;2023-01-09T08:25:34;10.70;99.90
11532;DHT22;5822;51.000;5.874;2023-01-09T08:27:59;10.80;99.90
11532;DHT22;5822;51.000;5.874;2023-01-09T08:30:25;10.80;99.90
11532;DHT22;5822;51.000;5.874;2023-01-09T08:32:52;10.70;99.90
11532;DHT22;5822;51.000;5.874;2023-01-09T08:35:19;10.60;99.90
11532;DHT22;5822;51.000;5.874;2023-01-09T08:37:45;10.60;99.90
11532;DHT22;5822;51.000;5.874;2023-01-09T08:40:13;10.70;99.90
11532;DHT22;5822;51.000;5.874;2023-01-09T08:42:39;10.70;99.90
11532;DHT22;5822;51.000;5.874;2023-01-09T08:45:23;10.70;99.90
11532;DHT22;5822;51.000;5.874;2023-01-09T08:48:07;10.80;99.90
11532;DHT22;5822;51.000;5.874;2023-01-09T08:50:33;10.80;99.90
11532;DHT22;5822;51.000;5.874;2023-01-09T08:52:59;10.80;99.90
11532;DHT22;5822;51.000;5.874;2023-01-09T08:55:24;10.80;99.90
11532;DHT22;5822;51.000;5.874;2023-01-09T08:57:51;10.90;99.90
11532;DHT22;5822;51.000;5.874;2023-01-09T09:00:19;10.80;99.90
11532;DHT22;5822;51.000;5.874;2023-01-09T09:02:50;10.90;99.90
11532;DHT22;5822;51.000;5.874;2023-01-09T09:05:17;10.90;99.90
11532;DHT22;5822;51.000;5.874;2023-01-09T09:07:42;10.90;99.90
11532;DHT22;5822;51.000;5.874;2023-01-09T09:10:09;11.00;99.90
11532;DHT22;5822;51.000;5.874;2023-01-09T09:12:34;11.00;99.90
11532;DHT22;5822;51.000;5.874;2023-01-09T09:15:00;11.00;99.90
11532;DHT22;5822;51.000;5.874;2023-01-09T09:17:41;11.00;99.90
11532;DHT22;5822;51.000;5.874;2023-01-09T09:20:09;11.00;99.90
11532;DHT22;5822;51.000;5.874;2023-01-09T09:22:35;11.00;99.90
11532;DHT22;5822;51.000;5.874;2023-01-09T09:25:01;10.90;99.90
11532;DHT22;5822;51.000;5.874;2023-01-09T09:27:29;10.90;99.90
11532;DHT22;5822;51.000;5.874;2023-01-09T09:29:55;10.90;99.90
11532;DHT22;5822;51.000;5.874;2023-01-09T09:32:21;10.80;99.90
11532;DHT22;5822;51.000;5.874;2023-01-09T09:34:46;10.70;99.90
11532;DHT22;5822;51.000;5.874;2023-01-09T09:37:12;10.70;99.90
11532;DHT22;5822;51.000;5.874;2023-01-09T09:39:38;10.70;99.90
11532;DHT22;5822;51.000;5.874;2023-01-09T09:53:59;11.10;99.90
11532;DHT22;5822;51.000;5.874;2023-01-09T09:56:30;11.10;99.90
11532;DHT22;5822;51.000;5.874;2023-01-09T09:59:13;11.00;99.90
11532;DHT22;5822;51.000;5.874;2023-01-09T10:02:27;11.10;99.90
11532;DHT22;5822;51.000;5.874;2023-01-09T10:04:30;11.10;99.90
11532;DHT22;5822;51.000;5.874;2023-01-09T10:07:03;11.10;99.90
11532;DHT22;5822;51.000;5.874;2023-01-09T10:12:27;11.10;99.90
11532;DHT22;5822;51.000;5.874;2023-01-09T10:14:58;11.10;99.90
11532;DHT22;5822;51.000;5.874;2023-01-09T10:17:29;11.10;99.90
11532;DHT22;5822;51.000;5.874;2023-01-09T10:39:22;11.10;99.90
11532;DHT22;5822;51.000;5.874;2023-01-09T10:41:54;11.20;99.90
11532;DHT22;5822;51.000;5.874;2023-01-09T10:44:26;10.90;99.90
11532;DHT22;5822;51.000;5.874;2023-01-09T10:46:58;11.00;99.90
11532;DHT22;5822;51.000;5.874;2023-01-09T10:49:25;11.00;99.90
11532;DHT22;5822;51.000;5.874;2023-01-09T10:54:28;11.00;99.90
11532;DHT22;5822;51.000;5.874;2023-01-09T10:59:20;10.90;99.90
11532;DHT22;5822;51.000;5.874;2023-01-09T11:01:46;10.80;99.90
11532;DHT22;5822;51.000;5.874;2023-01-09T11:04:31;10.90;99.90
11532;DHT22;5822;51.000;5.874;2023-01-09T11:07:01;10.90;99.90
11532;DHT22;5822;51.000;5.874;2023-01-09T11:10:22;10.90;99.90
11532;DHT22;5822;51.000;5.874;2023-01-09T11:12:41;10.90;99.90
11532;DHT22;5822;51.000;5.874;2023-01-09T11:15:21;10.90;99.90
11532;DHT22;5822;51.000;5.874;2023-01-09T11:17:53;10.80;99.90
11532;DHT22;5822;51.000;5.874;2023-01-09T11:22:48;10.80;99.90
11532;DHT22;5822;51.000;5.874;2023-01-09T11:25:19;10.90;99.90
11532;DHT22;5822;51.000;5.874;2023-01-09T11:30:30;11.00;99.90
11532;DHT22;5822;51.000;5.874;2023-01-09T11:32:58;10.90;99.90
11532;DHT22;5822;51.000;5.874;2023-01-09T11:35:34;10.80;99.90
11532;DHT22;5822;51.000;5.874;2023-01-09T11:38:14;10.80;99.90
11532;DHT22;5822;51.000;5.874;2023-01-09T11:41:00;10.80;99.90
11532;DHT22;5822;51.000;5.874;2023-01-09T11:46:04;10.90;99.90
11532;DHT22;5822;51.000;5.874;2023-01-09T11:48:35;10.90;99.90
11532;DHT22;5822;51.000;5.874;2023-01-09T11:51:04;10.80;99.90
11532;DHT22;5822;51.000;5.874;2023-01-09T11:56:31;10.90;99.90
11532;DHT22;5822;51.000;5.874;2023-01-09T11:58:58;11.00;99.90
11532;DHT22;5822;51.000;5.874;2023-01-09T12:01:55;10.90;99.90
11532;DHT22;5822;51.000;5.874;2023-01-09T12:07:39;10.80;99.90
11532;DHT22;5822;51.000;5.874;2023-01-09T12:10:29;10.70;99.90
11532;DHT22;5822;51.000;5.874;2023-01-09T12:21:47;10.70;99.90
11532;DHT22;5822;51.000;5.874;2023-01-09T12:27:44;10.70;99.90
11532;DHT22;5822;51.000;5.874;2023-01-09T12:38:58;10.90;99.90
11532;DHT22;5822;51.000;5.874;2023-01-09T12:47:16;11.00;99.90
11532;DHT22;5822;51.000;5.874;2023-01-09T12:50:07;10.90;99.90
11532;DHT22;5822;51.000;5.874;2023-01-09T12:55:33;11.10;99.90
11532;DHT22;5822;51.000;5.874;2023-01-09T12:58:07;11.10;99.90
11532;DHT22;5822;51.000;5.874;2023-01-09T13:00:44;11.00;99.90
11532;DHT22;5822;51.000;5.874;2023-01-09T13:03:14;10.90;99.90
11532;DHT22;5822;51.000;5.874;2023-01-09T13:05:51;10.90;99.90
11532;DHT22;5822;51.000;5.874;2023-01-09T13:11:30;11.00;99.90
11532;DHT22;5822;51.000;5.874;2023-01-09T13:16:52;10.90;99.90
11532;DHT22;5822;51.000;5.874;2023-01-09T13:19:35;10.90;99.90
11532;DHT22;5822;51.000;5.874;2023-01-09T13:22:03;11.00;99.90
11532;DHT22;5822;51.000;5.874;2023-01-09T13:24:53;11.00;99.90
11532;DHT22;5822;51.000;5.874;2023-01-09T13:27:22;11.00;99.90
11532;DHT22;5822;51.000;5.874;2023-01-09T13:29:53;10.90;99.90
11532;DHT22;5822;51.000;5.874;2023-01-09T13:34:53;10.80;99.90
11532;DHT22;5822;51.000;5.874;2023-01-09T13:37:28;10.70;99.90
11532;DHT22;5822;51.000;5.874;2023-01-09T13:40:18;10.70;99.90
11532;DHT22;5822;51.000;5.874;2023-01-09T13:43:02;10.70;99.90
11532;DHT22;5822;51.000;5.874;2023-01-09T13:45:33;10.70;99.90
11532;DHT22;5822;51.000;5.874;2023-01-09T13:50:43;10.90;99.90
11532;DHT22;5822;51.000;5.874;2023-01-09T14:01:04;10.90;99.90
11532;DHT22;5822;51.000;5.874;2023-01-09T14:03:37;10.90;99.90
11532;DHT22;5822;51.000;5.874;2023-01-09T14:06:14;10.90;99.90
11532;DHT22;5822;51.000;5.874;2023-01-09T14:08:41;10.80;99.90
11532;DHT22;5822;51.000;5.874;2023-01-09T14:11:08;10.80;99.90
11532;DHT22;5822;51.000;5.874;2023-01-09T14:13:45;10.80;99.90
11532;DHT22;5822;51.000;5.874;2023-01-09T14:16:21;10.80;99.90
11532;DHT22;5822;51.000;5.874;2023-01-09T14:21:16;10.90;99.90
11532;DHT22;5822;51.000;5.874;2023-01-09T14:24:08;10.90;99.90
11532;DHT22;5822;51.000;5.874;2023-01-09T14:26:49;10.80;99.90
11532;DHT22;5822;51.000;5.874;2023-01-09T14:34:55;10.70;99.90
11532;DHT22;5822;51.000;5.874;2023-01-09T14:37:22;10.70;99.90
11532;DHT22;5822;51.000;5.874;2023-01-09T14:39:49;10.80;99.90
11532;DHT22;5822;51.000;5.874;2023-01-09T14:42:20;10.90;99.90
11532;DHT22;5822;51.000;5.874;2023-01-09T14:45:17;10.90;99.90
11532;DHT22;5822;51.000;5.874;2023-01-09T14:47:51;10.90;99.90
11532;DHT22;5822;51.000;5.874;2023-01-09T14:50:27;10.90;99.90
11532;DHT22;5822;51.000;5.874;2023-01-09T14:58:20;10.80;99.90
11532;DHT22;5822;51.000;5.874;2023-01-09T15:01:03;10.80;99.90
11532;DHT22;5822;51.000;5.874;2023-01-09T15:03:45;10.70;99.90
11532;DHT22;5822;51.000;5.874;2023-01-09T15:06:17;10.70;99.90
11532;DHT22;5822;51.000;5.874;2023-01-09T15:08:46;10.70;99.90
11532;DHT22;5822;51.000;5.874;2023-01-09T15:11:14;10.70;99.90
11532;DHT22;5822;51.000;5.874;2023-01-09T15:13:43;10.70;99.90
11532;DHT22;5822;51.000;5.874;2023-01-09T15:16:18;10.80;99.90
11532;DHT22;5822;51.000;5.874;2023-01-09T15:18:47;10.80;99.90
11532;DHT22;5822;51.000;5.874;2023-01-09T15:21:18;10.80;99.90
11532;DHT22;5822;51.000;5.874;2023-01-09T15:23:44;10.70;99.90
11532;DHT22;5822;51.000;5.874;2023-01-09T15:26:18;10.90;99.90
11532;DHT22;5822;51.000;5.874;2023-01-09T15:28:49;10.80;99.90
11532;DHT22;5822;51.000;5.874;2023-01-09T15:31:17;10.80;99.90
11532;DHT22;5822;51.000;5.874;2023-01-09T15:33:46;10.80;99.90
11532;DHT22;5822;51.000;5.874;2023-01-09T15:36:26;10.90;99.90
11532;DHT22;5822;51.000;5.874;2023-01-09T15:38:53;10.80;99.90
11532;DHT22;5822;51.000;5.874;2023-01-09T15:41:29;10.80;99.90
11532;DHT22;5822;51.000;5.874;2023-01-09T15:44:23;10.70;99.90
11532;DHT22;5822;51.000;5.874;2023-01-09T15:46:51;10.70;99.90
11532;DHT22;5822;51.000;5.874;2023-01-09T15:49:21;10.60;99.90
11532;DHT22;5822;51.000;5.874;2023-01-09T15:51:47;10.50;99.90
11532;DHT22;5822;51.000;5.874;2023-01-09T15:54:16;10.60;99.90
11532;DHT22;5822;51.000;5.874;2023-01-09T15:56:42;10.70;99.90
11532;DHT22;5822;51.000;5.874;2023-01-09T16:01:58;10.70;99.90
11532;DHT22;5822;51.000;5.874;2023-01-09T16:04:48;10.50;99.90
11532;DHT22;5822;51.000;5.874;2023-01-09T16:07:17;10.60;99.90
11532;DHT22;5822;51.000;5.874;2023-01-09T16:09:45;10.60;99.90
11532;DHT22;5822;51.000;5.874;2023-01-09T16:12:25;10.60;99.90
11532;DHT22;5822;51.000;5.874;2023-01-09T16:14:53;10.60;99.90
11532;DHT22;5822;51.000;5.874;2023-01-09T16:17:20;10.60;99.90
11532;DHT22;5822;51.000;5.874;2023-01-09T16:19:58;10.60;99.90
11532;DHT22;5822;51.000;5.874;2023-01-09T16:22:50;10.50;99.90
11532;DHT22;5822;51.000;5.874;2023-01-09T16:25:28;10.40;99.90
11532;DHT22;5822;51.000;5.874;2023-01-09T16:28:26;10.40;99.90
11532;DHT22;5822;51.000;5.874;2023-01-09T16:31:01;10.40;99.90
11532;DHT22;5822;51.000;5.874;2023-01-09T16:33:29;10.40;99.90
11532;DHT22;5822;51.000;5.874;2023-01-09T16:35:55;10.40;99.90
11532;DHT22;5822;51.000;5.874;2023-01-09T16:38:23;10.50;99.90
11532;DHT22;5822;51.000;5.874;2023-01-09T16:41:01;10.30;99.90
11532;DHT22;5822;51.000;5.874;2023-01-09T16:43:45;10.20;99.90
11532;DHT22;5822;51.000;5.874;2023-01-09T16:46:12;10.20;99.90
11532;DHT22;5822;51.000;5.874;2023-01-09T16:48:38;10.20;99.90
11532;DHT22;5822;51.000;5.874;2023-01-09T16:51:05;10.10;99.90
11532;DHT22;5822;51.000;5.874;2023-01-09T16:53:31;10.10;99.90
11532;DHT22;5822;51.000;5.874;2023-01-09T16:55:57;10.10;99.90
11532;DHT22;5822;51.000;5.874;2023-01-09T16:58:31;10.10;99.90
11532;DHT22;5822;51.000;5.874;2023-01-09T17:00:57;10.00;99.90
11532;DHT22;5822;51.000;5.874;2023-01-09T17:03:23;10.00;99.90
11532;DHT22;5822;51.000;5.874;2023-01-09T17:05:54;9.90;99.90
11532;DHT22;5822;51.000;5.874;2023-01-09T17:08:23;10.00;99.90
11532;DHT22;5822;51.000;5.874;2023-01-09T17:10:53;10.00;99.90
11532;DHT22;5822;51.000;5.874;2023-01-09T17:13:19;9.90;99.90
11532;DHT22;5822;51.000;5.874;2023-01-09T17:15:44;9.90;99.90
11532;DHT22;5822;51.000;5.874;2023-01-09T17:18:17;9.90;99.90
11532;DHT22;5822;51.000;5.874;2023-01-09T17:20:46;9.90;99.90
11532;DHT22;5822;51.000;5.874;2023-01-09T17:23:12;9.90;99.90
11532;DHT22;5822;51.000;5.874;2023-01-09T17:25:38;9.90;99.90
11532;DHT22;5822;51.000;5.874;2023-01-09T17:28:23;9.90;99.90
11532;DHT22;5822;51.000;5.874;2023-01-09T17:31:04;9.90;99.90
11532;DHT22;5822;51.000;5.874;2023-01-09T17:33:32;10.00;99.90
11532;DHT22;5822;51.000;5.874;2023-01-09T17:35:58;10.10;99.90
11532;DHT22;5822;51.000;5.874;2023-01-09T17:38:24;10.20;99.90
11532;DHT22;5822;51.000;5.874;2023-01-09T17:40:50;10.20;99.90
11532;DHT22;5822;51.000;5.874;2023-01-09T17:43:16;10.20;99.90
11532;DHT22;5822;51.000;5.874;2023-01-09T17:45:43;10.10;99.90
11532;DHT22;5822;51.000;5.874;2023-01-09T17:48:18;10.10;99.90
11532;DHT22;5822;51.000;5.874;2023-01-09T17:50:45;10.00;99.90
11532;DHT22;5822;51.000;5.874;2023-01-09T17:53:11;10.00;99.90
11532;DHT22;5822;51.000;5.874;2023-01-09T17:55:37;10.00;99.90
11532;DHT22;5822;51.000;5.874;2023-01-09T17:58:03;9.90;99.90
11532;DHT22;5822;51.000;5.874;2023-01-09T18:00:32;9.90;99.90
11532;DHT22;5822;51.000;5.874;2023-01-09T18:03:01;9.80;99.90
11532;DHT22;5822;51.000;5.874;2023-01-09T18:05:27;9.70;99.90
11532;DHT22;5822;51.000;5.874;2023-01-09T18:07:53;9.80;99.90
11532;DHT22;5822;51.000;5.874;2023-01-09T18:10:24;9.90;99.90
11532;DHT22;5822;51.000;5.874;2023-01-09T18:12:51;9.80;99.90
11532;DHT22;5822;51.000;5.874;2023-01-09T18:15:17;9.90;99.90
11532;DHT22;5822;51.000;5.874;2023-01-09T18:17:42;9.90;99.90
11532;DHT22;5822;51.000;5.874;2023-01-09T18:20:08;10.00;99.90
11532;DHT22;5822;51.000;5.874;2023-01-09T18:22:35;9.90;99.90
11532;DHT22;5822;51.000;5.874;2023-01-09T18:25:02;9.80;99.90
11532;DHT22;5822;51.000;5.874;2023-01-09T18:27:27;9.80;99.90
11532;DHT22;5822;51.000;5.874;2023-01-09T18:29:53;9.90;99.90